Southeastern Grand Banks: Past 24 Hour Conditions

 

Northeast Burgeo Bank - 44255

01:00 PM ADT 28 August 2015Buoy position: 47.27N 57.37W
Disclaimer

This table is a summary of hourly weather conditions for the past 24 hours.
Please note that these observations might not always be representative of weather conditions over their associated marine area.

Date / Time
(ADT)
Wind(knots) Wave height(m) Wave period(s) Pressure(kPa) Air tempC) Water tempC)
28 August 2015
13:00 W 18 gust 21 1.5 7.0 101.0 N/A 18
12:00 W 14 gust 16 1.6 7.0 101.0 N/A 18
11:00 WSW 10 gust 12 1.7 7.0 101.0 N/A 18
10:00 WSW 14 gust 16 1.7 7.0 100.9 N/A 18
9:00 SW 12 gust 14 1.7 6.0 100.9 N/A 17
8:00 SW 10 gust 12 1.8 7.0 100.9 N/A 18
7:00 SW 10 gust 12 1.8 6.0 100.9 N/A 18
6:00 SSW 14 gust 16 2.1 6.0 100.8 N/A 18
5:00 S 18 gust 21 2.4 6.0 100.8 N/A 18
4:00 SSE 21 gust 27 2.4 6.0 100.9 N/A 18
3:00 ESE 16 gust 21 1.8 6.0 101.0 N/A 18
2:00 ESE 19 gust 23 1.8 6.0 101.2 N/A 18
1:00 SE 18 gust 21 1.8 5.0 101.4 N/A 18
0:00 SE 19 gust 23 1.7 5.0 101.4 N/A 18
27 August 2015
23:00 SE 21 gust 25 1.5 5.0 101.5 N/A 18
22:00 SE 16 gust 19 1.4 5.0 101.6 N/A 18
21:00 SSE 16 gust 18 1.3 5.0 101.7 N/A 18
20:00 SSE 14 gust 18 1.3 4.0 101.7 N/A 18
19:00 SSE 16 gust 19 1.3 10.0 101.7 N/A 18
18:00 SSE 14 gust 18 1.2 9.0 101.7 N/A 18
17:00 SE 16 gust 18 1.2 9.0 101.8 N/A 18
16:00 SE 12 gust 16 1.1 12.0 101.8 N/A 18
15:00 SSE 12 gust 16 1.1 10.0 101.9 N/A 18
14:00 SSE 12 gust 14 1.1 12.0 102.0 N/A 18
13:00 SE 12 gust 16 1.1 11.0 102.0 N/A 18

Zoom-in to make a selection

Map of Atlantic - Newfoundland marine weather areas Southwestern Grand Banks - 44138 Banquereau - 44139 Tail of the Bank - 44140 Nickerson Bank - 44251 Northeast Burgeo Bank - 44255 Blanc-Sablon Airport Cap Whittle Chevery Natashquan Airport Heath Point Miscou Island Grand Étang Ingonish Beach North Mountain St.Paul Island J.A. Douglas McCurdy Sydney Airport Charlottetown Airport East Point North Cape Argentia Bonavista Burgeo Cape Race Corner Brook Daniel's Harbour Englee Ferolle Point La Scie Port aux Basques Rocky Harbour Sagona Island St. Anthony Airport St. John's Int'l Airport St. Lawrence Stephenville Airport Twillingate Winterland Wreckhouse Cartwright Airport Mary's Harbour Grates Cove Pool's Island Marticot Island Long Pond Eskasoni (First Nations) Îles de la Madeleine Airport
Legend:
buoy Buoy
land station Land Station

Atlantic - Newfoundland Area

Another Region

What we are doing

Date modified: